This is the latest recevied weather packets stored in our database for station/object KF4PPJ. If no packets are shown the sender has not sent any weather packets the latest 10 day(s).
| Time | Temp. | Humidity | Pressure | Rain* | Wind** | Luminosity | Snow |
|---|---|---|---|---|---|---|---|
| 1777665837 | 20.56° C | 52% | 1018.6 hPa | 0 mm | - | 730 W/m² | - |
| 1777665535 | 20.56° C | 51% | 1018.3 hPa | 0 mm | - | 468 W/m² | - |
| 1777665230 | 20.56° C | 52% | 1018.6 hPa | 0 mm | - | 484 W/m² | - |
| 1777664927 | 20.56° C | 52% | 1018.6 hPa | 0 mm | - | 704 W/m² | - |
| 1777664623 | 20.56° C | 52% | 1018.6 hPa | 0 mm | - | 662 W/m² | - |
| 1777664319 | 20° C | 55% | 1018.6 hPa | 0 mm | - | 659 W/m² | - |
| 1777664018 | 20° C | 53% | 1018.5 hPa | 0 mm | - | 619 W/m² | - |
| 1777663715 | 20° C | 54% | 1018.8 hPa | 0 mm | - | 626 W/m² | - |
| 1777663412 | 19.44° C | 57% | 1018.6 hPa | 0 mm | - | 628 W/m² | - |
| 1777663109 | 19.44° C | 56% | 1018.8 hPa | 0 mm | - | 514 W/m² | - |
| 1777662806 | 19.44° C | 57% | 1018.7 hPa | 0 mm | - | 652 W/m² | - |
| 1777662502 | 19.44° C | 56% | 1019 hPa | 0 mm | - | 632 W/m² | - |
| 1777662199 | 18.89° C | 58% | 1018.8 hPa | 0 mm | - | 563 W/m² | - |
| 1777661894 | 18.89° C | 59% | 1019 hPa | 0 mm | - | 488 W/m² | - |
| 1777661590 | 18.89° C | 60% | 1018.9 hPa | 0 mm | - | 433 W/m² | - |
| 1777661286 | 18.33° C | 60% | 1018.7 hPa | 0 mm | - | 423 W/m² | - |
| 1777660982 | 18.89° C | 59% | 1019.1 hPa | 0 mm | - | 413 W/m² | - |
| 1777660678 | 19.44° C | 59% | 1019.1 hPa | 0 mm | - | 347 W/m² | - |
| 1777660375 | 20° C | 56% | 1019.1 hPa | 0 mm | - | 286 W/m² | - |
| 1777660071 | 20° C | 55% | 1018.8 hPa | 0 mm | - | 558 W/m² | - |
| 1777659769 | 19.44° C | 56% | 1018.8 hPa | 0 mm | - | 447 W/m² | - |
| 1777659465 | 19.44° C | 57% | 1019 hPa | 0 mm | - | 446 W/m² | - |
| 1777659162 | 19.44° C | 58% | 1019 hPa | 0 mm | - | 501 W/m² | - |
| 1777658860 | 19.44° C | 58% | 1019.3 hPa | 0 mm | - | 534 W/m² | - |
| 1777658555 | 19.44° C | 57% | 1019 hPa | 0 mm | - | 436 W/m² | - |
* Rain latest hour (hover to see other rain measurements)
** Current wind speed in m/s (hover to see current wind gust speed)